createdAt,value
2018-01-20T00:00:50.513Z,77.50
2018-01-20T00:03:22.654Z,78.63
2018-01-20T00:05:51.134Z,91.83
2018-01-20T00:08:19.118Z,81.53
2018-01-20T00:10:59.155Z,75.37
2018-01-20T00:13:27.406Z,79.83
2018-01-20T00:15:55.430Z,76.63
2018-01-20T00:18:23.473Z,81.30
2018-01-20T00:20:55.761Z,73.20
2018-01-20T00:23:26.172Z,71.23
2018-01-20T00:26:01.723Z,73.60
2018-01-20T00:28:29.884Z,74.53
2018-01-20T00:30:57.963Z,72.00
2018-01-20T00:33:25.978Z,74.03
2018-01-20T00:35:56.220Z,71.33
2018-01-20T00:38:24.408Z,76.13
2018-01-20T00:40:52.299Z,68.70
2018-01-20T00:43:22.524Z,67.90
2018-01-20T00:45:50.734Z,67.47
2018-01-20T00:48:18.721Z,67.47
2018-01-20T00:50:46.987Z,62.47
2018-01-20T00:53:14.977Z,58.67
2018-01-20T00:55:42.917Z,61.80
2018-01-20T00:58:11.009Z,63.43
2018-01-20T01:00:39.202Z,62.10
2018-01-20T01:03:07.139Z,60.40
2018-01-20T01:05:35.305Z,57.83
2018-01-20T01:08:03.298Z,58.93
2018-01-20T01:10:31.362Z,56.50
2018-01-20T01:12:59.550Z,57.90
2018-01-20T01:15:27.493Z,55.90
2018-01-20T01:17:55.708Z,55.97
2018-01-20T01:20:23.881Z,55.53
2018-01-20T01:22:51.815Z,60.90
2018-01-20T01:25:19.727Z,58.90
2018-01-20T01:27:47.997Z,57.33
2018-01-20T01:30:18.327Z,57.27
2018-01-20T01:32:46.384Z,54.33
2018-01-20T01:35:14.640Z,56.30
2018-01-20T01:37:42.584Z,53.03
2018-01-20T01:40:13.369Z,55.27
2018-01-20T01:42:41.289Z,59.50
2018-01-20T01:45:09.254Z,53.87
2018-01-20T01:47:37.319Z,60.03
2018-01-20T01:50:07.235Z,51.47
2018-01-20T01:52:35.559Z,60.07
2018-01-20T01:55:11.100Z,54.87
2018-01-20T01:57:39.381Z,59.87
2018-01-20T02:00:07.522Z,57.87
2018-01-20T02:02:35.829Z,57.93
2018-01-20T02:05:03.678Z,54.53
2018-01-20T02:07:31.972Z,56.60
2018-01-20T02:09:59.935Z,57.10
2018-01-20T02:12:32.414Z,56.53
2018-01-20T02:15:00.339Z,63.83
2018-01-20T02:17:30.407Z,57.13
2018-01-20T02:19:58.379Z,56.73
2018-01-20T02:22:26.550Z,55.67
2018-01-20T02:24:54.800Z,58.07
2018-01-20T02:27:22.793Z,56.90
2018-01-20T02:29:50.842Z,54.47
2018-01-20T02:32:19.132Z,59.97
2018-01-20T02:34:47.389Z,59.60
2018-01-20T02:37:15.330Z,59.47
2018-01-20T02:39:43.419Z,60.83
2018-01-20T02:42:11.614Z,56.20
2018-01-20T02:44:39.326Z,58.43
2018-01-20T02:47:07.317Z,57.67
2018-01-20T02:49:41.058Z,63.00
2018-01-20T02:52:08.923Z,63.00
2018-01-20T02:54:36.992Z,55.43
2018-01-20T02:57:05.233Z,60.87
2018-01-20T02:59:33.456Z,66.70
2018-01-20T03:02:01.821Z,70.33
2018-01-20T03:04:29.700Z,70.70
2018-01-20T03:06:57.715Z,70.00
2018-01-20T03:09:25.934Z,64.90
2018-01-20T03:11:54.103Z,67.30
2018-01-20T03:14:22.062Z,75.03
2018-01-20T03:16:50.053Z,71.63
2018-01-20T03:19:20.242Z,67.70
2018-01-20T03:21:48.409Z,73.77
2018-01-20T03:24:16.373Z,67.50
2018-01-20T03:26:44.564Z,69.57
2018-01-20T03:29:14.602Z,80.40
2018-01-20T03:31:42.720Z,71.53
2018-01-20T03:34:12.903Z,73.97
2018-01-20T03:36:41.152Z,75.23
2018-01-20T03:39:11.187Z,74.97
2018-01-20T03:41:39.382Z,76.33
2018-01-20T03:44:07.502Z,69.10
2018-01-20T03:46:35.471Z,78.20
2018-01-20T03:49:03.767Z,71.57
2018-01-20T03:51:35.844Z,72.83
2018-01-20T03:54:03.960Z,71.27
2018-01-20T03:56:31.717Z,76.40
2018-01-20T03:58:59.359Z,74.73
2018-01-20T04:01:27.356Z,75.90
2018-01-20T04:03:55.422Z,82.40
2018-01-20T04:06:23.512Z,74.07
2018-01-20T04:08:51.477Z,72.80
2018-01-20T04:11:19.670Z,74.57
2018-01-20T04:13:47.709Z,76.87
2018-01-20T04:16:15.699Z,76.40
2018-01-20T04:18:43.996Z,76.37
2018-01-20T04:21:14.222Z,73.10
2018-01-20T04:23:42.094Z,76.27
2018-01-20T04:26:10.245Z,74.27
2018-01-20T04:28:38.329Z,67.03
2018-01-20T04:31:06.392Z,74.80
2018-01-20T04:33:34.457Z,70.33
2018-01-20T04:36:02.498Z,74.77
2018-01-20T04:38:34.793Z,75.40
2018-01-20T04:41:02.981Z,71.13
2018-01-20T04:43:31.018Z,74.23
2018-01-20T04:45:58.983Z,75.33
2018-01-20T04:48:27.299Z,73.50
2018-01-20T04:50:57.350Z,68.93
2018-01-20T04:53:25.356Z,73.10
2018-01-20T04:55:53.547Z,65.90
2018-01-20T04:58:21.487Z,66.53
2018-01-20T05:00:51.693Z,68.80
2018-01-20T05:03:19.920Z,65.27
2018-01-20T05:05:48.406Z,71.37
2018-01-20T05:08:16.483Z,71.27
2018-01-20T05:10:44.236Z,69.43
2018-01-20T05:13:11.931Z,65.80
2018-01-20T05:15:39.871Z,62.80
2018-01-20T05:18:08.013Z,62.90
2018-01-20T05:20:36.012Z,59.27
2018-01-20T05:23:06.135Z,65.63
2018-01-20T05:25:34.283Z,69.73
2018-01-20T05:28:04.523Z,58.97
2018-01-20T05:30:32.802Z,62.53
2018-01-20T05:33:01.181Z,65.13
2018-01-20T05:35:29.554Z,59.63
2018-01-20T05:37:57.820Z,61.30
2018-01-20T05:40:25.774Z,54.73
2018-01-20T05:42:54.080Z,55.90
2018-01-20T05:45:24.055Z,56.30
2018-01-20T05:47:51.821Z,65.97
2018-01-20T05:50:21.984Z,62.87
2018-01-20T05:52:54.101Z,54.23
2018-01-20T05:55:24.494Z,67.57
2018-01-20T05:57:52.795Z,58.00
2018-01-20T06:00:26.785Z,57.25
2018-01-20T06:02:54.815Z,60.27
2018-01-20T06:05:25.039Z,57.35
2018-01-20T06:07:53.194Z,59.67
2018-01-20T06:10:21.162Z,54.65
2018-01-20T06:12:49.426Z,54.00
2018-01-20T06:15:17.734Z,57.67
2018-01-20T06:17:52.463Z,57.75
2018-01-20T06:20:20.472Z,54.88
2018-01-20T06:22:48.568Z,55.97
2018-01-20T06:25:16.496Z,53.22
2018-01-20T06:27:45.463Z,57.80
2018-01-20T06:30:15.510Z,51.33
2018-01-20T06:32:45.918Z,55.58
2018-01-20T06:35:14.329Z,51.85
2018-01-20T06:37:42.404Z,51.83
2018-01-20T06:40:10.497Z,58.33
2018-01-20T06:42:38.991Z,58.10
2018-01-20T06:45:07.804Z,60.33
2018-01-20T06:47:36.788Z,59.67
2018-01-20T06:50:04.668Z,64.90
2018-01-20T06:52:33.023Z,69.57
2018-01-20T06:55:02.843Z,65.50
2018-01-20T06:57:30.979Z,68.47
2018-01-20T06:59:59.203Z,68.93
2018-01-20T07:02:29.312Z,71.20
2018-01-20T07:04:57.677Z,66.47
2018-01-20T07:07:25.941Z,74.20
2018-01-20T07:09:55.958Z,75.07
2018-01-20T07:12:27.849Z,71.28
2018-01-20T07:14:59.698Z,76.13
2018-01-20T07:17:27.528Z,76.77
2018-01-20T07:19:56.148Z,74.50
2018-01-20T07:22:24.526Z,75.55
2018-01-20T07:24:52.523Z,68.30
2018-01-20T07:27:20.975Z,76.00
2018-01-20T07:29:49.722Z,73.70
2018-01-20T07:32:17.796Z,73.30
2018-01-20T07:34:45.987Z,69.30
2018-01-20T07:37:13.951Z,73.00
2018-01-20T07:39:42.892Z,66.32
2018-01-20T07:42:11.008Z,71.40
2018-01-20T07:44:39.374Z,67.18
2018-01-20T07:47:08.308Z,63.87
2018-01-20T07:49:36.755Z,65.83
2018-01-20T07:52:04.465Z,74.20
2018-01-20T07:54:33.132Z,66.13
2018-01-20T07:57:07.028Z,69.90
2018-01-20T07:59:41.982Z,67.73
2018-01-20T08:02:10.106Z,63.00
2018-01-20T08:04:38.072Z,71.93
2018-01-20T08:07:08.033Z,70.47
2018-01-20T08:09:35.693Z,67.00
2018-01-20T08:12:03.819Z,70.00
2018-01-20T08:14:32.035Z,69.87
2018-01-20T08:17:00.033Z,71.17
2018-01-20T08:19:30.123Z,69.93
2018-01-20T08:21:58.389Z,67.20
2018-01-20T08:24:26.471Z,67.83
2018-01-20T08:26:54.538Z,70.97
2018-01-20T08:29:22.526Z,70.10
2018-01-20T08:31:50.543Z,70.27
2018-01-20T08:34:20.709Z,64.63
2018-01-20T08:36:50.933Z,61.85
2018-01-20T08:39:19.304Z,58.90
2018-01-20T08:41:49.535Z,58.00
2018-01-20T08:44:17.907Z,57.25
2018-01-20T08:46:45.967Z,59.50
2018-01-20T08:49:13.959Z,57.03
2018-01-20T08:51:42.064Z,56.20
2018-01-20T08:54:11.016Z,51.70
2018-01-20T08:56:41.157Z,58.93
2018-01-20T08:59:09.264Z,54.20
2018-01-20T09:01:37.167Z,52.83
2018-01-20T09:04:05.294Z,49.90
2018-01-20T09:06:33.359Z,48.40
2018-01-20T09:09:01.550Z,47.47
2018-01-20T09:11:31.603Z,50.90
2018-01-20T09:13:59.369Z,49.37
2018-01-20T09:16:27.138Z,45.92
2018-01-20T09:18:55.394Z,45.43
2018-01-20T09:21:23.628Z,47.50
2018-01-20T09:23:53.603Z,49.53
2018-01-20T09:26:23.753Z,48.25
2018-01-20T09:28:53.013Z,50.70
2018-01-20T09:31:23.240Z,47.92
2018-01-20T09:33:51.054Z,48.17
2018-01-20T09:36:19.244Z,47.83
2018-01-20T09:38:51.186Z,54.07
2018-01-20T09:41:19.250Z,52.13
2018-01-20T09:43:51.271Z,53.75
2018-01-20T09:46:19.185Z,59.63
2018-01-20T09:48:51.411Z,63.13
2018-01-20T09:51:19.664Z,56.65
2018-01-20T09:53:47.727Z,57.10
2018-01-20T09:56:15.795Z,64.60
2018-01-20T09:58:45.961Z,58.97
2018-01-20T10:01:14.210Z,68.73
2018-01-20T10:03:42.583Z,87.93
2018-01-20T10:06:10.408Z,64.30
2018-01-20T10:08:38.621Z,64.80
2018-01-20T10:11:06.664Z,61.93
2018-01-20T10:13:38.873Z,61.17
2018-01-20T10:16:07.248Z,65.40
2018-01-20T10:18:37.468Z,65.63
2018-01-20T10:21:07.692Z,61.17
2018-01-20T10:23:37.708Z,59.60
2018-01-20T10:26:05.339Z,69.50
2018-01-20T10:28:34.120Z,61.47
2018-01-20T10:31:06.424Z,61.83
2018-01-20T10:33:34.253Z,60.37
2018-01-20T10:36:02.420Z,63.13
2018-01-20T10:38:30.384Z,63.53
2018-01-20T10:41:00.551Z,66.30
2018-01-20T10:43:28.920Z,61.77
2018-01-20T10:45:56.887Z,62.90
2018-01-20T10:48:25.061Z,67.73
2018-01-20T10:50:53.309Z,61.73
2018-01-20T10:53:22.300Z,66.93
2018-01-20T10:55:50.053Z,71.50
2018-01-20T10:58:18.267Z,68.07
2018-01-20T11:00:50.376Z,65.50
2018-01-20T11:03:18.588Z,66.67
2018-01-20T11:05:46.529Z,63.97
2018-01-20T11:08:14.851Z,67.20
2018-01-20T11:10:45.260Z,68.70
2018-01-20T11:13:13.759Z,64.85
2018-01-20T11:15:41.590Z,67.87
2018-01-20T11:18:09.790Z,66.30
2018-01-20T11:20:37.923Z,64.40
2018-01-20T11:23:06.964Z,68.10
2018-01-20T11:25:34.736Z,69.37
2018-01-20T11:28:02.619Z,67.97
2018-01-20T11:30:30.768Z,64.75
2018-01-20T11:32:58.900Z,69.20
2018-01-20T11:35:27.541Z,69.73
2018-01-20T11:37:55.553Z,67.03
2018-01-20T11:40:26.546Z,72.87
2018-01-20T11:42:56.753Z,69.43
2018-01-20T11:45:25.026Z,70.67
2018-01-20T11:47:53.840Z,68.30
2018-01-20T11:50:21.956Z,64.68
2018-01-20T11:52:52.125Z,67.47
2018-01-20T11:55:24.988Z,64.77
2018-01-20T11:57:53.163Z,62.62
2018-01-20T12:00:21.235Z,68.93
2018-01-20T12:02:49.922Z,62.47
2018-01-20T12:05:17.801Z,61.23
2018-01-20T12:07:45.916Z,57.83
2018-01-20T12:10:13.880Z,68.60
2018-01-20T12:12:44.121Z,60.58
2018-01-20T12:15:12.731Z,59.83
2018-01-20T12:17:41.478Z,57.20
2018-01-20T12:20:09.694Z,56.43
2018-01-20T12:22:37.860Z,54.23
2018-01-20T12:25:05.936Z,56.73
2018-01-20T12:27:36.114Z,52.90
2018-01-20T12:30:04.844Z,57.03
2018-01-20T12:32:40.907Z,51.67
2018-01-20T12:35:08.637Z,52.57
2018-01-20T12:37:37.311Z,57.47
2018-01-20T12:40:05.318Z,54.97
2018-01-20T12:42:33.260Z,56.20
2018-01-20T12:45:03.597Z,56.28
2018-01-20T12:47:31.438Z,55.40
2018-01-20T12:49:59.727Z,53.70
2018-01-20T12:52:27.769Z,51.23
2018-01-20T12:54:55.588Z,50.07
2018-01-20T12:57:23.951Z,49.10
2018-01-20T12:59:54.092Z,49.17
2018-01-20T13:02:22.269Z,49.00
2018-01-20T13:04:50.430Z,42.17
2018-01-20T13:07:18.662Z,47.13
2018-01-20T13:09:46.660Z,47.13
2018-01-20T13:12:15.918Z,43.90
2018-01-20T13:14:48.252Z,43.33
2018-01-20T13:17:17.159Z,44.40
2018-01-20T13:19:45.310Z,47.70
2018-01-20T13:22:17.389Z,42.92
2018-01-20T13:24:45.443Z,45.83
2018-01-20T13:27:16.446Z,51.50
2018-01-20T13:29:44.377Z,51.37
2018-01-20T13:32:13.143Z,46.80
2018-01-20T13:34:41.422Z,46.93
2018-01-20T13:37:09.790Z,45.03
2018-01-20T13:39:37.615Z,46.33
2018-01-20T13:42:05.251Z,41.20
2018-01-20T13:44:33.388Z,42.03
2018-01-20T13:47:05.808Z,51.40
2018-01-20T13:49:34.561Z,43.60
2018-01-20T13:52:03.405Z,45.87
2018-01-20T13:54:31.742Z,47.60
2018-01-20T13:57:01.126Z,45.10
2018-01-20T13:59:30.263Z,46.20
2018-01-20T14:02:01.378Z,42.07
2018-01-20T14:04:29.938Z,45.37
2018-01-20T14:06:58.719Z,45.03
2018-01-20T14:09:27.375Z,44.17
2018-01-20T14:11:58.515Z,44.67
2018-01-20T14:14:26.827Z,41.83
2018-01-20T14:16:54.608Z,44.17
2018-01-20T14:19:22.865Z,44.27
2018-01-20T14:21:50.830Z,41.80
2018-01-20T14:24:20.169Z,42.92
2018-01-20T14:26:48.411Z,41.87
2018-01-20T14:29:16.677Z,47.00
2018-01-20T14:31:44.615Z,47.17
2018-01-20T14:34:14.776Z,45.25
2018-01-20T14:36:43.296Z,46.97
2018-01-20T14:39:11.387Z,45.83
2018-01-20T14:41:41.578Z,44.07
2018-01-20T14:44:09.702Z,45.77
2018-01-20T14:46:40.108Z,41.70
2018-01-20T14:49:08.373Z,51.83
2018-01-20T14:51:36.314Z,47.27
2018-01-20T14:54:04.562Z,38.80
2018-01-20T14:56:36.635Z,47.83
2018-01-20T14:59:06.638Z,48.77
2018-01-20T15:01:35.601Z,47.03
2018-01-20T15:04:03.789Z,48.10
2018-01-20T15:06:31.767Z,45.63
2018-01-20T15:09:01.946Z,48.07
2018-01-20T15:11:30.198Z,48.40
2018-01-20T15:13:58.305Z,48.67
2018-01-20T15:16:26.293Z,47.13
2018-01-20T15:18:55.360Z,53.00
2018-01-20T15:21:23.530Z,57.17
2018-01-20T15:23:51.915Z,52.83
2018-01-20T15:26:20.245Z,52.40
2018-01-20T15:28:50.268Z,49.33
2018-01-20T15:31:18.386Z,52.17
2018-01-20T15:33:46.352Z,67.03
2018-01-20T15:36:16.393Z,59.43
2018-01-20T15:38:45.084Z,57.87
2018-01-20T15:41:13.024Z,57.10
2018-01-20T15:43:41.217Z,61.00
2018-01-20T15:46:14.335Z,70.13
2018-01-20T15:48:43.069Z,77.90
2018-01-20T15:51:12.320Z,77.63
2018-01-20T15:53:40.733Z,75.33
2018-01-20T15:56:08.716Z,77.10
2018-01-20T15:58:36.682Z,78.70
2018-01-20T16:01:06.140Z,87.83
2018-01-20T16:03:34.398Z,103.93
2018-01-20T16:06:06.272Z,97.83
2018-01-20T16:08:37.428Z,108.17
2018-01-20T16:11:08.308Z,107.03
2018-01-20T16:13:41.288Z,103.63
2018-01-20T16:16:09.609Z,99.37
2018-01-20T16:18:37.763Z,105.67
2018-01-20T16:21:05.921Z,94.23
2018-01-20T16:23:34.336Z,101.60
2018-01-20T16:26:06.548Z,97.17
2018-01-20T16:28:36.791Z,98.67
2018-01-20T16:31:05.108Z,95.73
2018-01-20T16:33:33.950Z,100.60
2018-01-20T16:36:02.618Z,102.13
2018-01-20T16:38:31.464Z,101.37
2018-01-20T16:40:59.534Z,93.00
2018-01-20T16:43:27.784Z,96.03
2018-01-20T16:46:00.957Z,86.20
2018-01-20T16:48:29.276Z,85.47
2018-01-20T16:51:00.017Z,86.47
2018-01-20T16:53:28.489Z,86.90
2018-01-20T16:55:58.729Z,81.50
2018-01-20T16:58:26.677Z,83.37
2018-01-20T17:00:55.463Z,85.77
2018-01-20T17:03:24.109Z,93.17
2018-01-20T17:05:52.898Z,81.93
2018-01-20T17:08:23.624Z,89.60
2018-01-20T17:10:51.633Z,83.30
2018-01-20T17:13:19.610Z,88.10
2018-01-20T17:15:50.735Z,85.93
2018-01-20T17:18:19.333Z,86.83
2018-01-20T17:20:50.499Z,87.23
2018-01-20T17:23:18.856Z,85.60
2018-01-20T17:25:46.825Z,86.17
2018-01-20T17:28:21.755Z,86.37
2018-01-20T17:30:49.588Z,84.57
2018-01-20T17:33:18.430Z,81.90
2018-01-20T17:35:46.856Z,85.07
2018-01-20T17:38:14.966Z,74.30
2018-01-20T17:40:47.140Z,78.13
2018-01-20T17:43:14.830Z,76.67
2018-01-20T17:45:42.869Z,72.30
2018-01-20T17:48:13.097Z,71.80
2018-01-20T17:50:42.082Z,71.97
2018-01-20T17:53:13.222Z,64.70
2018-01-20T17:55:41.059Z,61.40
2018-01-20T17:58:09.358Z,56.63
2018-01-20T18:00:42.660Z,56.17
2018-01-20T18:03:11.240Z,53.13
2018-01-20T18:05:38.999Z,49.43
2018-01-20T18:08:07.988Z,44.63
2018-01-20T18:10:37.086Z,44.83
2018-01-20T18:13:06.081Z,42.60
2018-01-20T18:15:38.152Z,44.80
2018-01-20T18:18:06.046Z,35.60
2018-01-20T18:20:34.140Z,42.23
2018-01-20T18:23:02.104Z,36.10
2018-01-20T18:25:31.049Z,38.73
2018-01-20T18:27:59.869Z,34.63
2018-01-20T18:30:29.946Z,36.70
2018-01-20T18:32:58.850Z,33.57
2018-01-20T18:35:28.865Z,30.47
2018-01-20T18:37:56.672Z,31.30
2018-01-20T18:40:24.865Z,30.50
2018-01-20T18:42:52.830Z,27.80
2018-01-20T18:45:21.018Z,36.20
2018-01-20T18:47:48.912Z,26.37
2018-01-20T18:50:17.159Z,25.30
2018-01-20T18:52:45.219Z,29.50
2018-01-20T18:55:13.182Z,28.63
2018-01-20T18:57:41.447Z,23.87
2018-01-20T19:00:11.723Z,28.13
2018-01-20T19:02:41.728Z,26.20
2018-01-20T19:05:09.668Z,23.03
2018-01-20T19:07:39.934Z,24.63
2018-01-20T19:10:09.100Z,24.90
2018-01-20T19:12:37.137Z,20.97
2018-01-20T19:15:05.829Z,20.07
2018-01-20T19:17:33.795Z,24.27
2018-01-20T19:20:07.220Z,19.30
2018-01-20T19:22:38.037Z,21.60
2018-01-20T19:25:05.765Z,19.60
2018-01-20T19:27:33.856Z,18.80
2018-01-20T19:30:06.184Z,22.07
2018-01-20T19:32:34.311Z,21.23
2018-01-20T19:35:04.453Z,18.83
2018-01-20T19:37:32.750Z,19.53
2018-01-20T19:40:01.130Z,18.67
2018-01-20T19:42:29.998Z,16.80
2018-01-20T19:44:57.975Z,16.40
2018-01-20T19:47:26.336Z,17.20
2018-01-20T19:49:54.397Z,16.57
2018-01-20T19:52:24.546Z,16.27
2018-01-20T19:54:52.504Z,15.50
2018-01-20T19:57:23.771Z,17.93
2018-01-20T19:59:51.782Z,16.00
2018-01-20T20:02:20.400Z,16.30
2018-01-20T20:04:49.203Z,14.77
2018-01-20T20:07:24.349Z,15.67
2018-01-20T20:09:52.415Z,16.47
2018-01-20T20:12:35.636Z,14.90
2018-01-20T20:15:24.596Z,13.60
2018-01-20T20:18:10.437Z,17.83
2018-01-20T20:20:53.717Z,13.97
2018-01-20T20:23:25.892Z,14.43
2018-01-20T20:26:00.282Z,15.73
2018-01-20T20:28:33.132Z,16.20
2018-01-20T20:31:02.073Z,14.90
2018-01-20T20:33:30.029Z,14.03
2018-01-20T20:35:58.268Z,13.43
2018-01-20T20:38:26.907Z,13.70
2018-01-20T20:40:55.450Z,15.80
2018-01-20T20:43:24.932Z,15.10
2018-01-20T20:45:53.981Z,13.97
2018-01-20T20:48:22.291Z,13.57
2018-01-20T20:50:53.105Z,14.47
2018-01-20T20:53:21.928Z,10.30
2018-01-20T20:55:50.518Z,10.23
2018-01-20T20:58:22.735Z,11.70
2018-01-20T21:00:50.904Z,13.43
2018-01-20T21:03:19.040Z,10.67
2018-01-20T21:05:47.230Z,12.00
2018-01-20T21:08:15.173Z,11.93
2018-01-20T21:10:43.361Z,12.47
2018-01-20T21:13:11.326Z,11.23
2018-01-20T21:15:39.551Z,13.43
2018-01-20T21:18:08.028Z,12.27
2018-01-20T21:20:38.247Z,10.30
2018-01-20T21:23:06.115Z,10.63
2018-01-20T21:25:36.265Z,11.20
2018-01-20T21:28:04.494Z,10.70
2018-01-20T21:30:32.561Z,11.07
2018-01-20T21:33:01.224Z,9.10
2018-01-20T21:35:29.424Z,9.80
2018-01-20T21:37:59.656Z,10.30
2018-01-20T21:40:27.470Z,7.97
2018-01-20T21:42:55.543Z,9.33
2018-01-20T21:45:23.742Z,8.90
2018-01-20T21:47:51.939Z,10.20
2018-01-20T21:50:20.923Z,12.20
2018-01-20T21:52:48.998Z,13.13
2018-01-20T21:55:17.372Z,11.37
2018-01-20T21:57:48.064Z,10.07
2018-01-20T22:00:15.980Z,12.10
2018-01-20T22:02:46.198Z,10.37
2018-01-20T22:05:16.476Z,13.83
2018-01-20T22:07:46.301Z,15.10
2018-01-20T22:10:16.288Z,12.83
2018-01-20T22:12:44.350Z,13.73
2018-01-20T22:15:16.968Z,14.50
2018-01-20T22:17:46.390Z,13.97
2018-01-20T22:20:15.993Z,14.17
2018-01-20T22:22:45.452Z,13.03
2018-01-20T22:25:17.547Z,14.90
2018-01-20T22:27:47.151Z,15.83
2018-01-20T22:30:20.237Z,14.57
2018-01-20T22:32:49.806Z,15.23
2018-01-20T22:35:19.014Z,13.80
2018-01-20T22:37:48.416Z,18.77
2018-01-20T22:40:20.819Z,13.80
2018-01-20T22:42:50.922Z,19.17
2018-01-20T22:45:20.042Z,15.27
2018-01-20T22:47:53.316Z,15.77
2018-01-20T22:50:23.258Z,11.63
2018-01-20T22:52:52.045Z,13.90
2018-01-20T22:55:22.411Z,14.17
2018-01-20T22:57:51.219Z,15.17
2018-01-20T23:00:20.338Z,14.20
2018-01-20T23:02:53.454Z,15.33
2018-01-20T23:05:22.989Z,13.97
2018-01-20T23:07:52.341Z,12.43
2018-01-20T23:10:21.948Z,15.03
2018-01-20T23:12:53.080Z,14.13
2018-01-20T23:15:22.068Z,12.07
2018-01-20T23:17:51.215Z,12.63
2018-01-20T23:20:22.634Z,13.90
2018-01-20T23:22:52.147Z,12.80
2018-01-20T23:25:22.279Z,15.13
2018-01-20T23:27:54.386Z,14.70
2018-01-20T23:30:22.756Z,14.93
2018-01-20T23:32:55.396Z,17.37
2018-01-20T23:35:24.502Z,12.80
2018-01-20T23:37:52.646Z,14.10
2018-01-20T23:40:23.602Z,13.60
2018-01-20T23:42:51.969Z,15.73
2018-01-20T23:45:20.664Z,15.93
2018-01-20T23:47:48.607Z,13.97
2018-01-20T23:50:17.719Z,15.70
2018-01-20T23:52:46.420Z,12.30
2018-01-20T23:55:15.705Z,14.17
2018-01-20T23:57:43.475Z,12.90
